Time;durP1;ratioP1;P1;durP2;ratioP2;P2;SDS_P1;SDS_P2;PMS_P1;PMS_P2;Temp;Humidity;BMP_temperature;BMP_pressure;BME280_temperature;BME280_humidity;BME280_pressure;Samples;Min_cycle;Max_cycle;Signal;HPM_P1;HPM_P2
2021/12/22 00:00:26;;;;;;;;;;;-1.40;99.90;;;;;;4988847;28;20067;-70
2021/12/22 00:02:53;;;;;;;;;;;-1.40;99.90;;;;;;4988260;28;20086;-70
2021/12/22 00:05:24;;;;;;;;;;;-1.40;99.90;;;;;;4987479;28;20153;-70
2021/12/22 00:07:51;;;;;;;;;;;-1.40;99.90;;;;;;4987787;28;21137;-70
2021/12/22 00:10:19;;;;;;;;;;;-1.50;99.90;;;;;;4987781;28;20161;-70
2021/12/22 00:12:48;;;;;;;;;;;-1.50;99.90;;;;;;4987408;28;20051;-69
2021/12/22 00:15:15;;;;;;;;;;;-1.50;99.90;;;;;;4987728;28;20068;-69
2021/12/22 00:17:43;;;;;;;;;;;-1.50;99.90;;;;;;4987814;28;20082;-70
2021/12/22 00:20:11;;;;;;;;;;;-1.50;99.90;;;;;;4988439;28;20060;-70
2021/12/22 00:22:38;;;;;;;;;;;-1.60;99.90;;;;;;4988034;28;20099;-70
2021/12/22 00:25:06;;;;;;;;;;;-1.60;99.90;;;;;;4987728;28;20141;-70
2021/12/22 00:27:33;;;;;;;;;;;-1.70;99.90;;;;;;4987140;28;21141;-69
2021/12/22 00:30:02;;;;;;;;;;;-1.70;99.90;;;;;;4987418;28;20268;-70
2021/12/22 00:32:31;;;;;;;;;;;-1.80;99.90;;;;;;4988281;28;20088;-70
2021/12/22 00:34:58;;;;;;;;;;;-1.80;99.90;;;;;;4987334;28;20232;-70
2021/12/22 00:37:32;;;;;;;;;;;-1.90;99.90;;;;;;4988002;28;21041;-70
2021/12/22 00:40:00;;;;;;;;;;;-1.90;99.90;;;;;;4987657;28;20142;-70
2021/12/22 00:42:27;;;;;;;;;;;-1.90;99.90;;;;;;4987779;28;20265;-69
2021/12/22 00:44:54;;;;;;;;;;;-1.90;99.90;;;;;;4986580;28;20165;-70
2021/12/22 00:47:24;;;;;;;;;;;-1.90;99.90;;;;;;4987698;28;21147;-69
2021/12/22 00:49:52;;;;;;;;;;;-1.90;99.90;;;;;;4987690;28;20067;-70
2021/12/22 00:52:19;;;;;;;;;;;-1.90;99.90;;;;;;4987981;28;21165;-70
2021/12/22 00:54:46;;;;;;;;;;;-1.90;99.90;;;;;;4991583;28;20060;-69
2021/12/22 00:57:15;;;;;;;;;;;-1.90;99.90;;;;;;4991310;28;20235;-70
2021/12/22 00:59:42;;;;;;;;;;;-1.90;99.90;;;;;;4990889;28;20141;-70
2021/12/22 01:02:10;;;;;;;;;;;-1.90;99.90;;;;;;4991220;28;20051;-69
2021/12/22 01:04:39;;;;;;;;;;;-2.00;99.90;;;;;;4991136;28;20086;-70
2021/12/22 01:07:06;;;;;;;;;;;-2.00;99.90;;;;;;4990691;28;20066;-69
2021/12/22 01:09:33;;;;;;;;;;;-2.00;99.90;;;;;;4990915;28;20060;-69
2021/12/22 01:12:01;;;;;;;;;;;-2.00;99.90;;;;;;4990788;28;20058;-69
2021/12/22 01:14:28;;;;;;;;;;;-2.00;99.90;;;;;;4990709;28;21040;-70
2021/12/22 01:17:00;;;;;;;;;;;-2.10;99.90;;;;;;4990756;28;20069;-69
2021/12/22 01:19:34;;;;;;;;;;;-2.10;99.90;;;;;;4990817;28;21265;-70
2021/12/22 01:22:17;;;;;;;;;;;-2.20;99.90;;;;;;4991129;28;20156;-70
2021/12/22 01:24:48;;;;;;;;;;;-2.10;99.90;;;;;;4990828;28;20057;-69
2021/12/22 01:27:20;;;;;;;;;;;-2.10;99.90;;;;;;4990674;28;21410;-69
2021/12/22 01:29:47;;;;;;;;;;;-2.10;99.90;;;;;;4989998;28;21108;-69
2021/12/22 01:32:17;;;;;;;;;;;-2.10;99.90;;;;;;4990824;28;20107;-70
2021/12/22 01:34:44;;;;;;;;;;;-2.10;99.90;;;;;;4990344;28;20051;-70
2021/12/22 01:37:13;;;;;;;;;;;-2.20;99.90;;;;;;4990196;28;20088;-70
2021/12/22 01:39:40;;;;;;;;;;;-2.20;99.90;;;;;;4990398;28;20990;-70
2021/12/22 01:42:07;;;;;;;;;;;-2.20;99.90;;;;;;4990518;28;21159;-70
2021/12/22 01:44:47;;;;;;;;;;;-2.30;99.90;;;;;;4990318;28;20141;-69
2021/12/22 01:49:59;;;;;;;;;;;-2.30;99.90;;;;;;5023556;28;20074;-70
2021/12/22 01:52:28;;;;;;;;;;;-2.30;99.90;;;;;;4990250;28;20118;-69
2021/12/22 01:55:07;;;;;;;;;;;-2.30;99.90;;;;;;4990015;28;20060;-70
2021/12/22 01:57:35;;;;;;;;;;;-2.40;99.90;;;;;;4989943;28;20415;-70
2021/12/22 02:00:02;;;;;;;;;;;-2.40;99.90;;;;;;4990025;28;21061;-70
2021/12/22 02:02:29;;;;;;;;;;;-2.50;99.90;;;;;;5009700;28;20109;-70
2021/12/22 02:04:56;;;;;;;;;;;-2.50;99.90;;;;;;4989302;28;20598;-70
2021/12/22 02:07:23;;;;;;;;;;;-2.60;99.90;;;;;;4988555;28;21106;-70
2021/12/22 02:12:41;;;;;;;;;;;-2.50;99.90;;;;;;4987299;28;20076;-70
2021/12/22 02:15:09;;;;;;;;;;;-2.50;99.90;;;;;;4989554;28;21111;-69
2021/12/22 02:17:37;;;;;;;;;;;-2.50;99.90;;;;;;4989556;28;20068;-69
2021/12/22 02:20:07;;;;;;;;;;;-2.40;99.90;;;;;;4987425;28;20060;-70
2021/12/22 02:22:35;;;;;;;;;;;-2.40;99.90;;;;;;4989457;28;20060;-69
2021/12/22 02:25:11;;;;;;;;;;;-2.40;99.90;;;;;;4989912;28;20058;-70
2021/12/22 02:27:43;;;;;;;;;;;-2.40;99.90;;;;;;4989307;28;20052;-70
2021/12/22 02:30:16;;;;;;;;;;;-2.40;99.90;;;;;;4989849;28;21165;-70
2021/12/22 02:33:08;;;;;;;;;;;-2.50;99.90;;;;;;4989596;28;21119;-70
2021/12/22 02:35:43;;;;;;;;;;;-2.50;99.90;;;;;;4989228;28;20068;-70
2021/12/22 02:38:16;;;;;;;;;;;-2.40;99.90;;;;;;4989338;28;20141;-70
2021/12/22 02:40:44;;;;;;;;;;;-2.40;99.90;;;;;;4991541;28;20067;-70
2021/12/22 02:43:11;;;;;;;;;;;-2.40;99.90;;;;;;5004274;28;20069;-70
2021/12/22 02:45:38;;;;;;;;;;;-2.30;99.90;;;;;;5009188;28;20073;-70
2021/12/22 02:48:06;;;;;;;;;;;-2.30;99.90;;;;;;5008869;28;20054;-69
2021/12/22 02:50:36;;;;;;;;;;;-2.30;99.90;;;;;;5008940;28;20059;-70
2021/12/22 02:53:09;;;;;;;;;;;-2.20;99.90;;;;;;5009051;28;20051;-70
2021/12/22 02:55:46;;;;;;;;;;;-2.20;99.90;;;;;;5007991;28;20116;-69
2021/12/22 02:58:21;;;;;;;;;;;-2.10;99.90;;;;;;5008089;28;20060;-71
2021/12/22 03:01:01;;;;;;;;;;;-2.10;99.90;;;;;;5002711;23;20075;-71
2021/12/22 03:03:44;;;;;;;;;;;-2.00;99.90;;;;;;4984045;28;20233;-72
2021/12/22 03:06:15;;;;;;;;;;;-2.00;99.90;;;;;;4967383;28;20061;-71
2021/12/22 03:08:44;;;;;;;;;;;-2.00;99.90;;;;;;4984281;28;20058;-72
2021/12/22 03:11:11;;;;;;;;;;;-2.10;99.90;;;;;;4967706;28;21134;-72
2021/12/22 03:13:38;;;;;;;;;;;-2.20;99.90;;;;;;4984259;28;21156;-72
2021/12/22 03:16:05;;;;;;;;;;;-2.20;99.90;;;;;;4984028;28;20133;-72
2021/12/22 03:18:33;;;;;;;;;;;-2.20;99.90;;;;;;4984180;28;20060;-72
2021/12/22 03:21:09;;;;;;;;;;;-2.20;99.90;;;;;;4967371;28;20091;-71
2021/12/22 03:23:36;;;;;;;;;;;-2.20;99.90;;;;;;4984112;28;20052;-71
2021/12/22 03:26:05;;;;;;;;;;;-2.20;99.90;;;;;;4983571;28;20142;-72
2021/12/22 03:28:32;;;;;;;;;;;-2.20;99.90;;;;;;4967128;28;20069;-72
2021/12/22 03:30:59;;;;;;;;;;;-2.30;99.90;;;;;;4983502;28;20084;-71
2021/12/22 03:33:26;;;;;;;;;;;-2.30;99.90;;;;;;4983860;28;20075;-72
2021/12/22 03:35:53;;;;;;;;;;;-2.40;99.90;;;;;;4988466;28;20141;-72
2021/12/22 03:38:21;;;;;;;;;;;-2.30;99.90;;;;;;5002692;28;20076;-69
2021/12/22 03:40:48;;;;;;;;;;;-2.20;99.90;;;;;;4986638;28;21229;-71
2021/12/22 03:43:16;;;;;;;;;;;-2.30;99.90;;;;;;4987262;28;20143;-70
2021/12/22 03:45:43;;;;;;;;;;;-2.30;99.90;;;;;;4986195;28;20075;-67
2021/12/22 03:48:10;;;;;;;;;;;-2.30;99.90;;;;;;4985915;28;20088;-70
2021/12/22 03:50:37;;;;;;;;;;;-2.30;99.90;;;;;;4986591;28;21023;-70
2021/12/22 03:53:05;;;;;;;;;;;-2.30;99.90;;;;;;4986420;28;20194;-71
2021/12/22 03:55:32;;;;;;;;;;;-2.30;99.90;;;;;;4986435;28;21110;-70
2021/12/22 03:57:59;;;;;;;;;;;-2.30;99.90;;;;;;4986334;28;20170;-70
2021/12/22 04:00:29;;;;;;;;;;;-2.30;99.90;;;;;;4985750;28;20141;-71
2021/12/22 04:02:57;;;;;;;;;;;-2.40;99.90;;;;;;4985725;28;21177;-72
2021/12/22 04:05:24;;;;;;;;;;;-2.40;99.90;;;;;;4985361;28;20075;-71
2021/12/22 04:07:53;;;;;;;;;;;-2.40;99.90;;;;;;4985857;28;20060;-72
2021/12/22 04:10:22;;;;;;;;;;;-2.50;99.90;;;;;;4986037;28;20058;-71
2021/12/22 04:12:50;;;;;;;;;;;-2.50;99.90;;;;;;4986265;28;21115;-71
2021/12/22 04:15:17;;;;;;;;;;;-2.50;99.90;;;;;;4986706;28;20072;-71
2021/12/22 04:17:46;;;;;;;;;;;-2.50;99.90;;;;;;4985448;28;20052;-71
2021/12/22 04:20:13;;;;;;;;;;;-2.50;99.90;;;;;;4987281;28;20170;-71
2021/12/22 04:22:41;;;;;;;;;;;-2.50;99.90;;;;;;4986563;28;20060;-72
2021/12/22 04:25:09;;;;;;;;;;;-2.50;99.90;;;;;;4987236;28;20227;-71
2021/12/22 04:27:36;;;;;;;;;;;-2.50;99.90;;;;;;4987090;28;20189;-71
2021/12/22 04:30:04;;;;;;;;;;;-2.60;99.90;;;;;;4990415;28;20060;-71
2021/12/22 04:32:31;;;;;;;;;;;-2.60;99.90;;;;;;4989783;28;20074;-72
2021/12/22 04:35:00;;;;;;;;;;;-2.60;99.90;;;;;;4990959;28;20075;-71
2021/12/22 04:37:27;;;;;;;;;;;-2.60;99.90;;;;;;4989945;28;20052;-72
2021/12/22 04:39:54;;;;;;;;;;;-2.50;99.90;;;;;;4989966;28;20088;-71
2021/12/22 04:42:21;;;;;;;;;;;-2.50;99.90;;;;;;4990490;28;20153;-71
2021/12/22 04:44:52;;;;;;;;;;;-2.60;99.90;;;;;;4990105;28;21125;-70
2021/12/22 04:47:20;;;;;;;;;;;-2.60;99.90;;;;;;4990122;28;20090;-71
2021/12/22 04:49:47;;;;;;;;;;;-2.60;99.90;;;;;;4989881;28;20051;-71
2021/12/22 04:52:19;;;;;;;;;;;-2.60;99.90;;;;;;4989543;28;20140;-71
2021/12/22 04:54:50;;;;;;;;;;;-2.60;99.90;;;;;;4989834;28;20256;-71
2021/12/22 04:57:18;;;;;;;;;;;-2.50;99.90;;;;;;4989457;28;20228;-71
2021/12/22 04:59:45;;;;;;;;;;;-2.60;99.90;;;;;;4987409;28;20191;-71
2021/12/22 05:02:12;;;;;;;;;;;-2.60;99.90;;;;;;4989696;28;20153;-70
2021/12/22 05:04:39;;;;;;;;;;;-2.70;99.90;;;;;;4990421;28;20073;-71
2021/12/22 05:07:06;;;;;;;;;;;-2.70;99.90;;;;;;4989522;28;20100;-70
2021/12/22 05:09:35;;;;;;;;;;;-2.70;99.90;;;;;;4988822;28;21136;-70
2021/12/22 05:12:02;;;;;;;;;;;-2.60;99.90;;;;;;4988970;28;20150;-71
2021/12/22 05:14:30;;;;;;;;;;;-2.60;99.90;;;;;;4990050;28;20154;-71
2021/12/22 05:17:00;;;;;;;;;;;-2.50;99.90;;;;;;4988705;28;21086;-71
2021/12/22 05:19:28;;;;;;;;;;;-2.40;99.90;;;;;;4988928;28;20154;-71
2021/12/22 05:21:56;;;;;;;;;;;-2.40;99.90;;;;;;4989522;28;20061;-71
2021/12/22 05:24:23;;;;;;;;;;;-2.50;99.90;;;;;;4988956;28;20145;-71
2021/12/22 05:26:52;;;;;;;;;;;-2.50;99.90;;;;;;4988637;28;20170;-71
2021/12/22 05:29:19;;;;;;;;;;;-2.60;99.90;;;;;;4988644;28;21051;-70
2021/12/22 05:31:53;;;;;;;;;;;-2.70;99.90;;;;;;4989321;28;20131;-71
2021/12/22 05:34:20;;;;;;;;;;;-2.80;99.90;;;;;;4989229;28;20196;-71
2021/12/22 05:36:47;;;;;;;;;;;-2.90;99.90;;;;;;4988747;28;20135;-71
2021/12/22 05:39:14;;;;;;;;;;;-3.00;99.90;;;;;;4987726;28;20061;-70
2021/12/22 05:41:41;;;;;;;;;;;-3.10;99.90;;;;;;4989450;28;20140;-70
2021/12/22 05:44:10;;;;;;;;;;;-3.10;99.90;;;;;;4989033;28;20061;-71
2021/12/22 05:46:37;;;;;;;;;;;-3.10;99.90;;;;;;4988322;28;20068;-71
2021/12/22 05:49:05;;;;;;;;;;;-3.10;99.90;;;;;;4988119;28;20068;-70
2021/12/22 05:51:34;;;;;;;;;;;-3.10;99.90;;;;;;4989246;28;20133;-71
2021/12/22 05:54:01;;;;;;;;;;;-3.10;99.90;;;;;;4988670;28;20278;-71
2021/12/22 05:56:30;;;;;;;;;;;-3.00;99.90;;;;;;4988954;28;21115;-71
2021/12/22 05:58:57;;;;;;;;;;;-3.00;99.90;;;;;;4988070;28;20067;-71
2021/12/22 06:01:27;;;;;;;;;;;-3.00;99.90;;;;;;4982066;28;20162;-71
2021/12/22 06:03:57;;;;;;;;;;;-3.00;99.90;;;;;;4959413;28;21149;-71
2021/12/22 06:06:24;;;;;;;;;;;-3.00;99.90;;;;;;4969051;28;20171;-71
2021/12/22 06:08:51;;;;;;;;;;;-3.00;99.90;;;;;;4984925;28;20149;-71
2021/12/22 06:11:18;;;;;;;;;;;-3.00;99.90;;;;;;4980590;28;21184;-71
2021/12/22 06:13:45;;;;;;;;;;;-3.00;99.90;;;;;;4976672;28;20076;-71
2021/12/22 06:16:12;;;;;;;;;;;-3.00;99.90;;;;;;4987412;28;20166;-71
2021/12/22 06:18:44;;;;;;;;;;;-3.00;99.90;;;;;;4996580;28;20077;-71
2021/12/22 06:21:11;;;;;;;;;;;-2.90;99.90;;;;;;4972779;28;20094;-70
2021/12/22 06:23:38;;;;;;;;;;;-2.80;99.90;;;;;;4991550;28;21073;-71
2021/12/22 06:26:06;;;;;;;;;;;-2.80;99.90;;;;;;4974148;28;21018;-72
2021/12/22 06:28:33;;;;;;;;;;;-2.90;99.90;;;;;;4974301;28;20171;-71
2021/12/22 06:31:00;;;;;;;;;;;-2.80;99.90;;;;;;4976564;28;20158;-69
2021/12/22 06:33:27;;;;;;;;;;;-2.80;99.90;;;;;;4970058;28;20170;-71
2021/12/22 06:35:56;;;;;;;;;;;-2.70;99.90;;;;;;5000508;28;21196;-71
2021/12/22 06:38:23;;;;;;;;;;;-2.70;99.90;;;;;;4975577;28;20060;-71
2021/12/22 06:40:50;;;;;;;;;;;-2.80;99.90;;;;;;5000931;28;20067;-71
2021/12/22 06:43:18;;;;;;;;;;;-2.80;99.90;;;;;;4967972;28;20243;-71
2021/12/22 06:45:45;;;;;;;;;;;-2.80;99.90;;;;;;5000453;28;20052;-69
2021/12/22 06:48:12;;;;;;;;;;;-2.80;99.90;;;;;;4967821;28;20060;-71
2021/12/22 06:50:40;;;;;;;;;;;-2.70;99.90;;;;;;4999741;28;21134;-71
2021/12/22 06:53:08;;;;;;;;;;;-2.80;99.90;;;;;;5001730;28;20150;-71
2021/12/22 06:55:35;;;;;;;;;;;-2.70;99.90;;;;;;5000389;28;20159;-71
2021/12/22 06:58:03;;;;;;;;;;;-2.70;99.90;;;;;;4967535;28;20079;-72
2021/12/22 07:00:30;;;;;;;;;;;-2.70;99.90;;;;;;4999794;28;20374;-70
2021/12/22 07:02:58;;;;;;;;;;;-2.70;99.90;;;;;;4967881;28;20052;-71
2021/12/22 07:05:25;;;;;;;;;;;-2.70;99.90;;;;;;5000097;28;20052;-71
2021/12/22 07:07:52;;;;;;;;;;;-2.70;99.90;;;;;;5000064;28;20073;-70
2021/12/22 07:10:21;;;;;;;;;;;-2.70;99.90;;;;;;4998600;28;21043;-73
2021/12/22 07:12:48;;;;;;;;;;;-2.60;99.90;;;;;;4948009;28;20061;-69
2021/12/22 07:15:17;;;;;;;;;;;-2.60;99.90;;;;;;4948121;28;20060;-71
2021/12/22 07:17:46;;;;;;;;;;;-2.60;99.90;;;;;;4961261;28;20086;-71
2021/12/22 07:20:13;;;;;;;;;;;-2.60;99.90;;;;;;4987786;28;20074;-72
2021/12/22 07:22:41;;;;;;;;;;;-2.70;99.90;;;;;;4989729;28;20187;-70
2021/12/22 07:25:09;;;;;;;;;;;-2.60;99.90;;;;;;4986021;28;20067;-69
2021/12/22 07:27:38;;;;;;;;;;;-2.60;99.90;;;;;;4961860;28;20077;-71
2021/12/22 07:30:05;;;;;;;;;;;-2.60;99.90;;;;;;4985070;28;20113;-71
2021/12/22 07:32:32;;;;;;;;;;;-2.60;99.90;;;;;;4966484;28;21146;-71
2021/12/22 07:35:03;;;;;;;;;;;-2.60;99.90;;;;;;4966707;28;20170;-72
2021/12/22 07:37:33;;;;;;;;;;;-2.60;99.90;;;;;;4969715;28;20148;-72
2021/12/22 07:40:00;;;;;;;;;;;-2.60;99.90;;;;;;4972985;28;20099;-70
2021/12/22 07:42:27;;;;;;;;;;;-2.60;99.90;;;;;;5000052;28;21271;-70
2021/12/22 07:44:56;;;;;;;;;;;-2.60;99.90;;;;;;5000166;28;20054;-72
2021/12/22 07:47:23;;;;;;;;;;;-2.50;99.90;;;;;;4967225;28;20153;-70
2021/12/22 07:49:50;;;;;;;;;;;-2.50;99.90;;;;;;4998616;28;20060;-70
2021/12/22 07:52:17;;;;;;;;;;;-2.50;99.90;;;;;;4999250;28;21217;-71
2021/12/22 07:54:44;;;;;;;;;;;-2.50;99.90;;;;;;4966262;28;20060;-70
2021/12/22 07:57:12;;;;;;;;;;;-2.50;99.90;;;;;;4999304;28;20099;-69
2021/12/22 07:59:39;;;;;;;;;;;-2.50;99.90;;;;;;4966080;28;20082;-70
2021/12/22 08:02:09;;;;;;;;;;;-2.40;99.90;;;;;;4989834;28;20257;-70
2021/12/22 08:04:36;;;;;;;;;;;-2.30;99.90;;;;;;4980370;28;20194;-70
2021/12/22 08:07:04;;;;;;;;;;;-2.30;99.90;;;;;;5002966;28;21183;-70
2021/12/22 08:09:31;;;;;;;;;;;-2.30;99.90;;;;;;4970501;28;20124;-70
2021/12/22 08:12:04;;;;;;;;;;;-2.30;99.90;;;;;;4992471;28;20061;-70
2021/12/22 08:14:31;;;;;;;;;;;-2.30;99.90;;;;;;4970710;28;20290;-71
2021/12/22 08:16:59;;;;;;;;;;;-2.20;99.90;;;;;;4979777;28;20069;-71
2021/12/22 08:19:27;;;;;;;;;;;-2.20;99.90;;;;;;4978369;28;20082;-70
2021/12/22 08:21:55;;;;;;;;;;;-2.20;99.90;;;;;;4970485;28;20097;-70
2021/12/22 08:24:22;;;;;;;;;;;-2.20;99.90;;;;;;4981870;28;20075;-70
2021/12/22 08:26:50;;;;;;;;;;;-2.10;99.90;;;;;;4979282;28;20298;-71
2021/12/22 08:29:17;;;;;;;;;;;-2.00;99.90;;;;;;4973002;28;20082;-70
2021/12/22 08:31:44;;;;;;;;;;;-2.00;99.90;;;;;;4981869;28;21094;-70
2021/12/22 08:34:15;;;;;;;;;;;-2.00;99.90;;;;;;4989562;28;20075;-70
2021/12/22 08:39:29;;;;;;;;;;;-1.80;99.90;;;;;;4992639;28;20075;-70
2021/12/22 08:41:56;;;;;;;;;;;-1.70;99.90;;;;;;4977183;28;21146;-68
2021/12/22 08:44:23;;;;;;;;;;;-1.60;99.90;;;;;;4976352;28;20077;-70
2021/12/22 08:46:51;;;;;;;;;;;-1.60;99.90;;;;;;4973774;28;21186;-71
2021/12/22 08:49:19;;;;;;;;;;;-1.50;99.90;;;;;;4973364;28;20287;-70
2021/12/22 08:51:47;;;;;;;;;;;-1.50;99.90;;;;;;4973393;28;20170;-71
2021/12/22 08:54:14;;;;;;;;;;;-1.40;99.90;;;;;;4991434;28;20098;-69
2021/12/22 08:56:42;;;;;;;;;;;-1.30;99.90;;;;;;4962274;28;20094;-70
2021/12/22 08:59:10;;;;;;;;;;;-1.20;99.90;;;;;;4990892;28;20158;-69
2021/12/22 09:01:38;;;;;;;;;;;-1.10;99.90;;;;;;4973513;28;20075;-69
2021/12/22 09:04:05;;;;;;;;;;;-1.00;99.90;;;;;;4995691;28;20078;-70
2021/12/22 09:06:32;;;;;;;;;;;-0.90;99.90;;;;;;4978083;28;20642;-70
2021/12/22 09:09:01;;;;;;;;;;;-0.90;99.90;;;;;;4993633;28;20097;-69
2021/12/22 09:11:28;;;;;;;;;;;-0.80;99.90;;;;;;4973051;28;20069;-68
2021/12/22 09:13:55;;;;;;;;;;;-0.70;99.90;;;;;;4989549;28;21138;-70
2021/12/22 09:16:24;;;;;;;;;;;-0.70;99.90;;;;;;4988363;28;22140;-68
2021/12/22 09:18:51;;;;;;;;;;;-0.60;99.90;;;;;;4988516;28;20351;-68
2021/12/22 09:21:19;;;;;;;;;;;-0.50;99.90;;;;;;4989116;28;20074;-69
2021/12/22 09:23:46;;;;;;;;;;;-0.40;99.90;;;;;;4982096;28;20083;-70
2021/12/22 09:26:14;;;;;;;;;;;-0.30;99.90;;;;;;4990775;28;20195;-70
2021/12/22 09:28:41;;;;;;;;;;;-0.20;99.90;;;;;;4979568;28;20088;-70
2021/12/22 09:31:09;;;;;;;;;;;-0.10;99.90;;;;;;4974466;28;20085;-70
2021/12/22 09:33:37;;;;;;;;;;;0.00;99.90;;;;;;4969026;28;20228;-69
2021/12/22 09:36:06;;;;;;;;;;;0.10;99.90;;;;;;5001078;28;20096;-68
2021/12/22 09:38:33;;;;;;;;;;;0.20;99.90;;;;;;4962878;28;20085;-71
2021/12/22 09:41:01;;;;;;;;;;;0.40;99.90;;;;;;4979923;28;20110;-70
2021/12/22 09:43:29;;;;;;;;;;;0.40;99.90;;;;;;4970210;28;20069;-68
2021/12/22 09:46:01;;;;;;;;;;;0.60;99.90;;;;;;4966717;28;20093;-69
2021/12/22 09:48:36;;;;;;;;;;;0.60;99.90;;;;;;4965549;28;20074;-69
2021/12/22 09:53:49;;;;;;;;;;;0.80;99.90;;;;;;4986183;28;21248;-69
2021/12/22 09:56:19;;;;;;;;;;;0.80;99.90;;;;;;4967497;28;20074;-68
2021/12/22 09:58:49;;;;;;;;;;;0.90;99.90;;;;;;4968000;28;20330;-69
2021/12/22 10:01:19;;;;;;;;;;;0.90;99.90;;;;;;4970627;28;20091;-70
2021/12/22 10:03:46;;;;;;;;;;;1.00;99.90;;;;;;5000734;28;20069;-70
2021/12/22 10:06:13;;;;;;;;;;;1.10;99.90;;;;;;5001612;28;20100;-70
2021/12/22 10:08:50;;;;;;;;;;;1.30;99.90;;;;;;5001126;28;20069;-70
2021/12/22 10:11:18;;;;;;;;;;;1.40;99.90;;;;;;4969644;28;20091;-69
2021/12/22 10:13:45;;;;;;;;;;;1.50;99.90;;;;;;5002709;28;20069;-70
2021/12/22 10:16:15;;;;;;;;;;;1.70;99.90;;;;;;4968519;28;20082;-70
2021/12/22 10:18:42;;;;;;;;;;;1.90;99.90;;;;;;5001623;28;20072;-69
2021/12/22 10:21:10;;;;;;;;;;;2.10;99.90;;;;;;4968363;28;20082;-70
2021/12/22 10:23:38;;;;;;;;;;;2.30;99.90;;;;;;4968148;28;20267;-70
2021/12/22 10:26:06;;;;;;;;;;;2.40;99.90;;;;;;5001272;28;20294;-69
2021/12/22 10:28:46;;;;;;;;;;;2.60;99.90;;;;;;4967892;28;20073;-70
2021/12/22 10:31:15;;;;;;;;;;;2.80;99.90;;;;;;4968983;28;21129;-70
2021/12/22 10:33:42;;;;;;;;;;;2.90;99.90;;;;;;4968252;28;20068;-70
2021/12/22 10:36:11;;;;;;;;;;;3.10;99.90;;;;;;4967655;28;21165;-68
2021/12/22 10:38:38;;;;;;;;;;;3.60;99.90;;;;;;4968090;28;21060;-70
2021/12/22 10:41:06;;;;;;;;;;;4.20;99.90;;;;;;5001188;28;20080;-70
2021/12/22 10:43:34;;;;;;;;;;;4.70;99.90;;;;;;4967959;28;20069;-70
2021/12/22 10:46:03;;;;;;;;;;;5.10;99.90;;;;;;4967871;28;20079;-68
2021/12/22 10:51:24;;;;;;;;;;;6.60;99.90;;;;;;5001349;28;20086;-70
2021/12/22 10:53:53;;;;;;;;;;;7.00;99.90;;;;;;4967861;28;20162;-71
2021/12/22 10:56:24;;;;;;;;;;;7.50;99.90;;;;;;4968093;28;20069;-70
2021/12/22 10:59:06;;;;;;;;;;;7.50;99.90;;;;;;4967680;28;20099;-69
2021/12/22 11:01:35;;;;;;;;;;;7.60;99.90;;;;;;4967513;28;20077;-70
2021/12/22 11:04:06;;;;;;;;;;;8.20;99.90;;;;;;4967837;28;20180;-71
2021/12/22 11:06:34;;;;;;;;;;;8.00;99.90;;;;;;4967890;28;21122;-70
2021/12/22 11:09:02;;;;;;;;;;;9.00;99.90;;;;;;5000128;28;20069;-70
2021/12/22 11:11:33;;;;;;;;;;;9.10;99.90;;;;;;4968734;28;20091;-68
2021/12/22 11:14:05;;;;;;;;;;;9.00;99.90;;;;;;4976667;28;20085;-70
2021/12/22 11:16:32;;;;;;;;;;;8.60;99.90;;;;;;4971349;28;20128;-69
2021/12/22 11:19:11;;;;;;;;;;;7.90;99.90;;;;;;5002350;28;20149;-70
2021/12/22 11:21:52;;;;;;;;;;;8.70;99.90;;;;;;4969532;28;20116;-70
2021/12/22 11:24:19;;;;;;;;;;;9.40;99.90;;;;;;4967703;28;21202;-69
2021/12/22 11:26:47;;;;;;;;;;;9.70;99.90;;;;;;4964176;28;20199;-69
2021/12/22 11:29:14;;;;;;;;;;;9.60;99.90;;;;;;4990603;28;20695;-75
2021/12/22 11:31:42;;;;;;;;;;;9.70;99.90;;;;;;4985616;28;20086;-71
2021/12/22 11:34:11;;;;;;;;;;;10.60;99.90;;;;;;4974500;28;21141;-70
2021/12/22 11:36:39;;;;;;;;;;;11.70;99.90;;;;;;4999263;28;20108;-70
2021/12/22 11:39:06;;;;;;;;;;;12.90;99.90;;;;;;4971503;28;20108;-69
2021/12/22 11:41:42;;;;;;;;;;;13.80;99.90;;;;;;5003440;28;20077;-71
2021/12/22 11:44:09;;;;;;;;;;;14.30;99.90;;;;;;4986775;28;20096;-70
2021/12/22 11:46:37;;;;;;;;;;;13.60;99.90;;;;;;4986268;28;20060;-71
2021/12/22 11:49:05;;;;;;;;;;;12.60;99.90;;;;;;4985870;28;20099;-70
2021/12/22 11:51:35;;;;;;;;;;;12.80;99.90;;;;;;4986790;28;20328;-70
2021/12/22 11:54:07;;;;;;;;;;;13.70;99.90;;;;;;4986697;28;21213;-71
2021/12/22 11:56:35;;;;;;;;;;;15.10;99.90;;;;;;4981816;28;21269;-71
2021/12/22 11:59:02;;;;;;;;;;;14.90;99.90;;;;;;4976464;28;20178;-70
2021/12/22 12:01:29;;;;;;;;;;;14.50;99.90;;;;;;4999036;28;20078;-72
2021/12/22 12:04:11;;;;;;;;;;;15.30;99.90;;;;;;4999390;28;20060;-72
2021/12/22 12:06:48;;;;;;;;;;;15.60;99.90;;;;;;4966728;28;20076;-71
2021/12/22 12:09:16;;;;;;;;;;;16.50;99.90;;;;;;4966252;28;21055;-71
2021/12/22 12:11:45;;;;;;;;;;;16.10;99.90;;;;;;4954239;28;20078;-70
2021/12/22 12:14:29;;;;;;;;;;;16.80;99.90;;;;;;4947086;28;21052;-72
2021/12/22 12:22:33;;;;;;;;;;;17.90;99.90;;;;;;4979209;28;21123;-71
2021/12/22 12:25:02;;;;;;;;;;;18.10;99.90;;;;;;4987404;28;20086;-71
2021/12/22 12:27:47;;;;;;;;;;;18.70;99.90;;;;;;4987599;28;20075;-71
2021/12/22 12:30:16;;;;;;;;;;;18.70;99.90;;;;;;4987149;28;20077;-71
2021/12/22 12:32:57;;;;;;;;;;;17.90;99.90;;;;;;4987639;28;21274;-70
2021/12/22 12:35:26;;;;;;;;;;;18.00;99.90;;;;;;4978919;28;20303;-71
2021/12/22 12:37:58;;;;;;;;;;;18.40;99.90;;;;;;4984842;28;21136;-71
2021/12/22 12:40:26;;;;;;;;;;;17.80;99.90;;;;;;4974294;28;21046;-71
2021/12/22 12:42:56;;;;;;;;;;;17.00;99.90;;;;;;4973305;28;20067;-71
2021/12/22 12:45:43;;;;;;;;;;;16.50;99.90;;;;;;4982514;28;21056;-70
2021/12/22 12:48:26;;;;;;;;;;;16.50;99.90;;;;;;4971559;28;20111;-69
2021/12/22 12:51:12;;;;;;;;;;;16.60;99.90;;;;;;4979570;28;20067;-71
2021/12/22 12:53:41;;;;;;;;;;;16.00;99.90;;;;;;4976830;28;20075;-70
2021/12/22 12:56:10;;;;;;;;;;;15.30;99.90;;;;;;4976977;28;20077;-70
2021/12/22 12:58:51;;;;;;;;;;;14.10;99.90;;;;;;4968733;28;20060;-72
2021/12/22 13:01:18;;;;;;;;;;;13.00;99.90;;;;;;4969926;28;20150;-71
2021/12/22 13:03:49;;;;;;;;;;;11.20;99.90;;;;;;4997299;28;20296;-71
2021/12/22 13:06:16;;;;;;;;;;;10.30;99.90;;;;;;4969336;28;21269;-71
2021/12/22 13:08:46;;;;;;;;;;;8.90;99.90;;;;;;4968075;28;20060;-71
2021/12/22 13:11:13;;;;;;;;;;;8.50;99.90;;;;;;4969042;28;20060;-71
2021/12/22 13:15:45;;;;;;;;;;;8.80;99.90;;;;;;4968791;28;20092;-70
2021/12/22 13:16:39;;;;;;;;;;;8.80;99.90;;;;;;4984254;28;21263;-70
2021/12/22 13:19:06;;;;;;;;;;;9.00;99.90;;;;;;4967779;28;20063;-70
2021/12/22 13:21:33;;;;;;;;;;;9.40;99.90;;;;;;4985606;28;20082;-71
2021/12/22 13:24:02;;;;;;;;;;;10.00;99.90;;;;;;4985195;28;20154;-71
2021/12/22 13:26:29;;;;;;;;;;;10.00;99.90;;;;;;4968931;28;21389;-70
2021/12/22 13:28:56;;;;;;;;;;;9.90;99.90;;;;;;4984495;28;20259;-70
2021/12/22 13:31:23;;;;;;;;;;;10.20;99.90;;;;;;4985124;28;20166;-70
2021/12/22 13:34:02;;;;;;;;;;;10.80;99.90;;;;;;4985403;28;20054;-70
2021/12/22 13:36:29;;;;;;;;;;;11.40;99.90;;;;;;4985150;28;20182;-71
2021/12/22 13:38:58;;;;;;;;;;;12.10;99.90;;;;;;4963666;28;20255;-71
2021/12/22 13:41:29;;;;;;;;;;;12.10;99.90;;;;;;4975395;28;20272;-71
2021/12/22 13:43:57;;;;;;;;;;;11.70;99.90;;;;;;4969378;28;20282;-69
2021/12/22 13:46:25;;;;;;;;;;;11.30;99.90;;;;;;4968047;28;20182;-71
2021/12/22 13:48:53;;;;;;;;;;;9.90;99.90;;;;;;4975057;28;20149;-71
2021/12/22 13:51:25;;;;;;;;;;;9.20;99.90;;;;;;4967869;28;20154;-71
2021/12/22 13:53:52;;;;;;;;;;;9.70;99.90;;;;;;4975341;28;20069;-70
2021/12/22 13:56:21;;;;;;;;;;;9.50;99.90;;;;;;4992829;28;20065;-71
2021/12/22 13:58:50;;;;;;;;;;;8.70;99.90;;;;;;4967534;28;21022;-71
2021/12/22 14:01:22;;;;;;;;;;;7.70;99.90;;;;;;4967517;28;20076;-71
2021/12/22 14:03:50;;;;;;;;;;;6.70;99.90;;;;;;4966825;28;20069;-72
2021/12/22 14:06:21;;;;;;;;;;;6.30;99.90;;;;;;4990064;28;20396;-72
2021/12/22 14:09:05;;;;;;;;;;;5.80;99.90;;;;;;4985317;28;20076;-70
2021/12/22 14:11:34;;;;;;;;;;;5.30;99.90;;;;;;4977309;28;20331;-72
2021/12/22 14:14:34;;;;;;;;;;;5.00;99.90;;;;;;4970530;28;20060;-71
2021/12/22 14:17:23;;;;;;;;;;;5.10;99.90;;;;;;4890051;29;20069;-72
2021/12/22 14:20:03;;;;;;;;;;;5.40;99.90;;;;;;4882993;29;21257;-70
2021/12/22 14:22:33;;;;;;;;;;;5.60;99.90;;;;;;4941372;28;20154;-72
2021/12/22 14:25:01;;;;;;;;;;;6.10;99.90;;;;;;4968205;28;20060;-72
2021/12/22 14:27:32;;;;;;;;;;;6.20;99.90;;;;;;4968415;28;20052;-72
2021/12/22 14:30:00;;;;;;;;;;;6.10;99.90;;;;;;4967562;28;20060;-71
2021/12/22 14:32:30;;;;;;;;;;;6.00;99.90;;;;;;4968259;28;20105;-70
2021/12/22 14:34:58;;;;;;;;;;;5.90;99.90;;;;;;4967862;28;20059;-73
2021/12/22 14:37:29;;;;;;;;;;;5.20;99.90;;;;;;4968821;28;20058;-71
2021/12/22 14:39:56;;;;;;;;;;;5.00;99.90;;;;;;4967993;28;20269;-71
2021/12/22 14:42:24;;;;;;;;;;;5.00;99.90;;;;;;4968555;28;20088;-71
2021/12/22 14:44:52;;;;;;;;;;;5.10;99.90;;;;;;4968065;28;20216;-70
2021/12/22 14:47:20;;;;;;;;;;;5.20;99.90;;;;;;4967742;28;20068;-71
2021/12/22 14:49:47;;;;;;;;;;;4.90;99.90;;;;;;4983982;28;20082;-69
2021/12/22 14:52:16;;;;;;;;;;;4.80;99.90;;;;;;4968710;28;20052;-70